Atlantic City, NJ

9:52 PM EST on November 26, 2014 (GMT -0500)
Brigantine DPW | Change Station
CLOSE
Current Station
Personal Weather Station
Location: Brigantine, NJ
Elevation: 16 ft
Nearby Weather Stations

Elev 16 ft 39.39 °N, 74.39 °W | Updated 10 minutes ago

Overcast
Overcast
37.9 °F
Feels Like 29 °F
N
14.0
Wind Variable Wind from NNW
Gusts 26.0 mph

Today
High -- | Low -- °F
--% Chance of Precip.
Yesterday
High -- | Low -- °F
Precip. -- in
6:53 AM 4:36 PM
Waxing Crescent, 25% visible
Pressure 29.82 in
Visibility 10.0 miles
Clouds Scattered Clouds 1200 ft
Mostly Cloudy 3400 ft
Overcast 4000 ft
Windchill 29 °F
Dew Point 37 °F
Humidity 95%
Rainfall 0.43 in
Snow Depth Not available.
UV 0.0 out of 12
Pollen .10 out of 12
Air Quality Not available.
Flu Activity Not available.
SPECI KACY 270232Z 33014KT 10SM SCT012 BKN034 OVC040 02/02 A2982 RMK AO2 T00220017

More Conditions Fewer Conditions

Pressure 29.82 in
Visibility 10.0 miles
Clouds Scattered Clouds 1200 ft
Mostly Cloudy 3400 ft
Overcast 4000 ft
Windchill 29 °F
Dew Point 37 °F
Humidity 95%
Rainfall 0.43 in
Snow Depth Not available.
UV 0.0 out of 12
Pollen .10 out of 12
Air Quality Not available.
Flu Activity Not available.
SPECI KACY 270232Z 33014KT 10SM SCT012 BKN034 OVC040 02/02 A2982 RMK AO2 T00220017

More Conditions Fewer Conditions

10-Day Weather Forecast

Almanac

Astronomy

Nov. 26, 2014 Rise Set
Actual Time
Civil Twilight
Nautical Twilight
Astronomical Twilight
Moon
Length of Visible Light
Length of Day
Tomorrow will be .
, % of the Moon is Illuminated

Today's Extremes

State Highs State Lows

Community

WunderPhotos

Upload Photos

1,773,949 photos uploaded!

WunderBlogs® & News

Nearby

Air Quality

  Air Quality AQ Index Pollutant
Not available.

Snow Depth

Station Depth Elevation

Earthquake Activity

City Distance Mag. Time & Date
Minimum magnitude displayed is 2.5.

Coastal Water Temperatures

Place Temperature

Nearby Weather Stations